Terminal Aerodrome Forecast
Issued by NWS Duluth, MN

Home | Current Version | Previous Version | Text Only | Print | Product List | Glossary On
Versions: 1 2 3 4 5 6 7 8 9 10 11 12 13 14 15 16 17 18 19 20
000
FTUS43 KDLH 162324
TAFDLH
TAF
KDLH 162324Z 1700/1724 21011KT P6SM SKC
     FM170100 23006KT P6SM SKC WS020/23040KT
     FM170400 22006KT P6SM SKC=

USA.gov is the U.S. government's official web portal to all federal, state and local government web resources and services.